sensor_id;sensor_type;location;lat;lon;timestamp;pressure;altitude;pressure_sealevel;temperature;humidity
6668;BME280;3370;47.712;9.082;2023-08-20T00:00:37;97331.41;;;22.74;79.54
6668;BME280;3370;47.712;9.082;2023-08-20T00:03:13;97330.03;;;22.60;80.47
6668;BME280;3370;47.712;9.082;2023-08-20T00:05:40;97331.53;;;22.53;81.05
6668;BME280;3370;47.712;9.082;2023-08-20T00:08:06;97322.31;;;22.49;81.60
6668;BME280;3370;47.712;9.082;2023-08-20T00:10:32;97324.94;;;22.49;81.64
6668;BME280;3370;47.712;9.082;2023-08-20T00:12:58;97335.81;;;22.54;81.26
6668;BME280;3370;47.712;9.082;2023-08-20T00:15:25;97324.09;;;22.48;81.34
6668;BME280;3370;47.712;9.082;2023-08-20T00:17:54;97332.91;;;22.47;81.13
6668;BME280;3370;47.712;9.082;2023-08-20T00:20:21;97319.56;;;22.50;80.74
6668;BME280;3370;47.712;9.082;2023-08-20T00:22:48;97333.22;;;22.54;80.02
6668;BME280;3370;47.712;9.082;2023-08-20T00:25:16;97330.44;;;22.46;80.59
6668;BME280;3370;47.712;9.082;2023-08-20T00:27:42;97331.94;;;22.38;80.99
6668;BME280;3370;47.712;9.082;2023-08-20T00:30:09;97323.66;;;22.33;81.46
6668;BME280;3370;47.712;9.082;2023-08-20T00:32:36;97332.50;;;22.32;81.45
6668;BME280;3370;47.712;9.082;2023-08-20T00:35:02;97330.13;;;22.29;82.07
6668;BME280;3370;47.712;9.082;2023-08-20T00:37:32;97326.94;;;22.26;82.01
6668;BME280;3370;47.712;9.082;2023-08-20T00:39:58;97330.22;;;22.18;82.50
6668;BME280;3370;47.712;9.082;2023-08-20T00:42:25;97326.66;;;22.19;82.43
6668;BME280;3370;47.712;9.082;2023-08-20T00:44:52;97337.66;;;22.13;82.70
6668;BME280;3370;47.712;9.082;2023-08-20T00:47:18;97340.53;;;22.10;83.03
6668;BME280;3370;47.712;9.082;2023-08-20T00:49:46;97342.22;;;22.11;82.91
6668;BME280;3370;47.712;9.082;2023-08-20T00:52:15;97336.97;;;22.11;82.86
6668;BME280;3370;47.712;9.082;2023-08-20T00:54:42;97340.41;;;22.11;83.02
6668;BME280;3370;47.712;9.082;2023-08-20T00:57:10;97335.31;;;22.10;83.23
6668;BME280;3370;47.712;9.082;2023-08-20T00:59:36;97333.91;;;22.06;83.41
6668;BME280;3370;47.712;9.082;2023-08-20T01:02:02;97333.22;;;22.04;83.58
6668;BME280;3370;47.712;9.082;2023-08-20T01:04:29;97338.72;;;22.00;84.56
6668;BME280;3370;47.712;9.082;2023-08-20T01:07:42;97339.72;;;21.99;84.34
6668;BME280;3370;47.712;9.082;2023-08-20T01:10:23;97342.84;;;21.93;85.00
6668;BME280;3370;47.712;9.082;2023-08-20T01:12:53;97342.44;;;21.88;86.12
6668;BME280;3370;47.712;9.082;2023-08-20T01:15:19;97342.81;;;21.83;86.18
6668;BME280;3370;47.712;9.082;2023-08-20T01:17:45;97337.56;;;21.74;87.39
6668;BME280;3370;47.712;9.082;2023-08-20T01:20:14;97340.88;;;21.76;87.35
6668;BME280;3370;47.712;9.082;2023-08-20T01:22:59;97351.59;;;21.73;87.74
6668;BME280;3370;47.712;9.082;2023-08-20T01:28:30;97359.69;;;21.70;88.30
6668;BME280;3370;47.712;9.082;2023-08-20T01:30:59;97358.75;;;21.71;87.64
6668;BME280;3370;47.712;9.082;2023-08-20T01:33:25;97363.41;;;21.67;88.14
6668;BME280;3370;47.712;9.082;2023-08-20T01:35:52;97371.38;;;21.66;89.15
6668;BME280;3370;47.712;9.082;2023-08-20T01:38:19;97374.00;;;21.66;89.17
6668;BME280;3370;47.712;9.082;2023-08-20T01:40:45;97377.16;;;21.59;89.74
6668;BME280;3370;47.712;9.082;2023-08-20T01:43:11;97371.47;;;21.54;90.00
6668;BME280;3370;47.712;9.082;2023-08-20T01:45:36;97373.41;;;21.52;90.20
6668;BME280;3370;47.712;9.082;2023-08-20T01:48:02;97365.81;;;21.49;89.90
6668;BME280;3370;47.712;9.082;2023-08-20T01:50:30;97367.31;;;21.52;89.51
6668;BME280;3370;47.712;9.082;2023-08-20T01:52:55;97366.38;;;21.53;88.95
6668;BME280;3370;47.712;9.082;2023-08-20T01:55:21;97361.91;;;21.43;89.11
6668;BME280;3370;47.712;9.082;2023-08-20T01:57:47;97364.19;;;21.37;89.52
6668;BME280;3370;47.712;9.082;2023-08-20T02:00:13;97365.16;;;21.36;89.75
6668;BME280;3370;47.712;9.082;2023-08-20T02:02:39;97364.88;;;21.39;90.12
6668;BME280;3370;47.712;9.082;2023-08-20T02:05:06;97363.94;;;21.40;90.03
6668;BME280;3370;47.712;9.082;2023-08-20T02:07:31;97352.50;;;21.41;90.59
6668;BME280;3370;47.712;9.082;2023-08-20T02:09:57;97353.47;;;21.40;90.44
6668;BME280;3370;47.712;9.082;2023-08-20T02:12:25;97354.69;;;21.36;90.82
6668;BME280;3370;47.712;9.082;2023-08-20T02:14:52;97352.09;;;21.36;91.11
6668;BME280;3370;47.712;9.082;2023-08-20T02:17:17;97354.69;;;21.36;90.97
6668;BME280;3370;47.712;9.082;2023-08-20T02:19:43;97355.66;;;21.35;90.66
6668;BME280;3370;47.712;9.082;2023-08-20T02:22:09;97358.50;;;21.32;90.95
6668;BME280;3370;47.712;9.082;2023-08-20T02:24:35;97357.13;;;21.28;90.87
6668;BME280;3370;47.712;9.082;2023-08-20T02:27:01;97359.28;;;21.22;90.79
6668;BME280;3370;47.712;9.082;2023-08-20T02:29:26;97359.56;;;21.19;91.27
6668;BME280;3370;47.712;9.082;2023-08-20T02:31:52;97354.91;;;21.23;91.15
6668;BME280;3370;47.712;9.082;2023-08-20T02:34:18;97362.75;;;21.23;91.05
6668;BME280;3370;47.712;9.082;2023-08-20T02:36:44;97364.63;;;21.21;91.03
6668;BME280;3370;47.712;9.082;2023-08-20T02:39:09;97363.13;;;21.18;91.42
6668;BME280;3370;47.712;9.082;2023-08-20T02:41:35;97361.44;;;21.17;90.57
6668;BME280;3370;47.712;9.082;2023-08-20T02:44:05;97367.44;;;21.08;91.72
6668;BME280;3370;47.712;9.082;2023-08-20T02:46:30;97364.13;;;21.06;92.08
6668;BME280;3370;47.712;9.082;2023-08-20T02:48:56;97369.34;;;21.06;91.99
6668;BME280;3370;47.712;9.082;2023-08-20T02:51:22;97372.66;;;21.08;92.21
6668;BME280;3370;47.712;9.082;2023-08-20T02:53:48;97371.03;;;21.07;92.18
6668;BME280;3370;47.712;9.082;2023-08-20T02:56:14;97366.03;;;21.04;92.26
6668;BME280;3370;47.712;9.082;2023-08-20T02:58:40;97380.09;;;21.03;92.40
6668;BME280;3370;47.712;9.082;2023-08-20T03:01:05;97375.09;;;21.00;92.55
6668;BME280;3370;47.712;9.082;2023-08-20T03:03:31;97373.44;;;20.99;92.52
6668;BME280;3370;47.712;9.082;2023-08-20T03:05:57;97372.03;;;20.95;92.96
6668;BME280;3370;47.712;9.082;2023-08-20T03:08:23;97378.66;;;20.99;92.85
6668;BME280;3370;47.712;9.082;2023-08-20T03:10:49;97379.88;;;20.95;93.21
6668;BME280;3370;47.712;9.082;2023-08-20T03:13:14;97384.66;;;20.90;93.15
6668;BME280;3370;47.712;9.082;2023-08-20T03:15:40;97381.84;;;20.81;93.71
6668;BME280;3370;47.712;9.082;2023-08-20T03:18:06;97379.94;;;20.83;93.56
6668;BME280;3370;47.712;9.082;2023-08-20T03:20:32;97387.91;;;20.82;93.71
6668;BME280;3370;47.712;9.082;2023-08-20T03:22:58;97386.34;;;20.79;93.46
6668;BME280;3370;47.712;9.082;2023-08-20T03:25:24;97389.69;;;20.70;94.41
6668;BME280;3370;47.712;9.082;2023-08-20T03:27:52;97401.59;;;20.63;95.13
6668;BME280;3370;47.712;9.082;2023-08-20T03:30:19;97398.88;;;20.53;95.79
6668;BME280;3370;47.712;9.082;2023-08-20T03:32:44;97403.50;;;20.49;96.56
6668;BME280;3370;47.712;9.082;2023-08-20T03:35:10;97389.53;;;20.51;96.56
6668;BME280;3370;47.712;9.082;2023-08-20T03:37:36;97389.63;;;20.49;96.46
6668;BME280;3370;47.712;9.082;2023-08-20T03:40:02;97394.16;;;20.47;96.47
6668;BME280;3370;47.712;9.082;2023-08-20T03:42:30;97396.63;;;20.48;95.54
6668;BME280;3370;47.712;9.082;2023-08-20T03:44:56;97394.16;;;20.47;95.56
6668;BME280;3370;47.712;9.082;2023-08-20T03:47:22;97402.00;;;20.47;95.65
6668;BME280;3370;47.712;9.082;2023-08-20T03:49:48;97403.03;;;20.44;96.30
6668;BME280;3370;47.712;9.082;2023-08-20T03:52:14;97404.84;;;20.44;96.22
6668;BME280;3370;47.712;9.082;2023-08-20T03:54:40;97411.16;;;20.41;96.63
6668;BME280;3370;47.712;9.082;2023-08-20T03:57:06;97412.19;;;20.39;96.61
6668;BME280;3370;47.712;9.082;2023-08-20T03:59:31;97418.50;;;20.36;96.67
6668;BME280;3370;47.712;9.082;2023-08-20T04:01:58;97407.81;;;20.39;96.30
6668;BME280;3370;47.712;9.082;2023-08-20T04:04:23;97409.25;;;20.32;96.38
6668;BME280;3370;47.712;9.082;2023-08-20T04:06:49;97407.81;;;20.39;95.31
6668;BME280;3370;47.712;9.082;2023-08-20T04:09:15;97413.88;;;20.40;95.37
6668;BME280;3370;47.712;9.082;2023-08-20T04:11:42;97420.88;;;20.28;95.96
6668;BME280;3370;47.712;9.082;2023-08-20T04:14:08;97419.47;;;20.24;95.95
6668;BME280;3370;47.712;9.082;2023-08-20T04:16:34;97427.19;;;20.25;96.35
6668;BME280;3370;47.712;9.082;2023-08-20T04:18:59;97425.28;;;20.27;96.35
6668;BME280;3370;47.712;9.082;2023-08-20T04:21:25;97420.41;;;20.23;95.87
6668;BME280;3370;47.712;9.082;2023-08-20T04:23:51;97419.94;;;20.18;95.65
6668;BME280;3370;47.712;9.082;2023-08-20T04:26:17;97425.16;;;20.18;95.64
6668;BME280;3370;47.712;9.082;2023-08-20T04:28:43;97429.81;;;20.14;95.71
6668;BME280;3370;47.712;9.082;2023-08-20T04:31:09;97425.66;;;20.11;96.39
6668;BME280;3370;47.712;9.082;2023-08-20T04:33:35;97421.41;;;20.10;96.26
6668;BME280;3370;47.712;9.082;2023-08-20T04:36:00;97420.31;;;20.13;96.07
6668;BME280;3370;47.712;9.082;2023-08-20T04:38:26;97422.34;;;20.09;96.05
6668;BME280;3370;47.712;9.082;2023-08-20T04:40:52;97419.00;;;20.07;96.08
6668;BME280;3370;47.712;9.082;2023-08-20T04:43:18;97422.56;;;20.06;95.61
6668;BME280;3370;47.712;9.082;2023-08-20T04:45:43;97425.66;;;20.00;96.17
6668;BME280;3370;47.712;9.082;2023-08-20T04:48:09;97421.16;;;20.02;96.74
6668;BME280;3370;47.712;9.082;2023-08-20T04:50:35;97425.78;;;19.99;97.10
6668;BME280;3370;47.712;9.082;2023-08-20T04:53:01;97423.28;;;19.97;97.15
6668;BME280;3370;47.712;9.082;2023-08-20T04:55:28;97417.47;;;19.94;97.75
6668;BME280;3370;47.712;9.082;2023-08-20T04:57:53;97424.34;;;19.95;97.64
6668;BME280;3370;47.712;9.082;2023-08-20T05:00:21;97417.22;;;19.97;98.07
6668;BME280;3370;47.712;9.082;2023-08-20T05:02:46;97417.81;;;20.00;98.16
6668;BME280;3370;47.712;9.082;2023-08-20T05:05:12;97414.03;;;20.04;97.96
6668;BME280;3370;47.712;9.082;2023-08-20T05:07:38;97414.50;;;20.09;98.07
6668;BME280;3370;47.712;9.082;2023-08-20T05:10:04;97412.72;;;20.10;98.04
6668;BME280;3370;47.712;9.082;2023-08-20T05:12:30;97414.38;;;20.11;98.05
6668;BME280;3370;47.712;9.082;2023-08-20T05:14:56;97419.50;;;20.13;98.37
6668;BME280;3370;47.712;9.082;2023-08-20T05:17:22;97422.34;;;20.09;98.58
6668;BME280;3370;47.712;9.082;2023-08-20T05:19:48;97425.66;;;20.11;98.90
6668;BME280;3370;47.712;9.082;2023-08-20T05:22:13;97430.25;;;20.19;98.89
6668;BME280;3370;47.712;9.082;2023-08-20T05:24:39;97441.06;;;20.26;99.12
6668;BME280;3370;47.712;9.082;2023-08-20T05:27:10;97446.75;;;20.31;99.08
6668;BME280;3370;47.712;9.082;2023-08-20T05:29:37;97454.38;;;20.34;99.17
6668;BME280;3370;47.712;9.082;2023-08-20T05:32:04;97454.81;;;20.39;99.02
6668;BME280;3370;47.712;9.082;2023-08-20T05:34:30;97463.38;;;20.41;99.23
6668;BME280;3370;47.712;9.082;2023-08-20T05:36:55;97465.28;;;20.51;98.43
6668;BME280;3370;47.712;9.082;2023-08-20T05:39:21;97462.66;;;20.51;98.52
6668;BME280;3370;47.712;9.082;2023-08-20T05:41:49;97465.97;;;20.53;98.61
6668;BME280;3370;47.712;9.082;2023-08-20T05:44:14;97465.00;;;20.54;99.19
6668;BME280;3370;47.712;9.082;2023-08-20T05:46:40;97463.09;;;20.56;99.24
6668;BME280;3370;47.712;9.082;2023-08-20T05:49:06;97460.25;;;20.59;99.73
6668;BME280;3370;47.712;9.082;2023-08-20T05:51:32;97455.53;;;20.64;100.00
6668;BME280;3370;47.712;9.082;2023-08-20T05:53:58;97454.59;;;20.65;100.00
6668;BME280;3370;47.712;9.082;2023-08-20T05:56:24;97452.69;;;20.67;100.00
6668;BME280;3370;47.712;9.082;2023-08-20T05:58:49;97450.25;;;20.75;100.00
6668;BME280;3370;47.712;9.082;2023-08-20T06:01:15;97448.63;;;20.74;100.00
6668;BME280;3370;47.712;9.082;2023-08-20T06:03:41;97445.16;;;20.74;100.00
6668;BME280;3370;47.712;9.082;2023-08-20T06:06:07;97447.06;;;20.72;99.90
6668;BME280;3370;47.712;9.082;2023-08-20T06:08:32;97437.09;;;20.77;99.44
6668;BME280;3370;47.712;9.082;2023-08-20T06:10:58;97443.47;;;20.84;99.21
6668;BME280;3370;47.712;9.082;2023-08-20T06:13:24;97444.63;;;20.91;98.47
6668;BME280;3370;47.712;9.082;2023-08-20T06:15:50;97435.09;;;21.01;97.63
6668;BME280;3370;47.712;9.082;2023-08-20T06:18:15;97436.63;;;21.04;98.19
6668;BME280;3370;47.712;9.082;2023-08-20T06:20:41;97439.25;;;21.04;98.21
6668;BME280;3370;47.712;9.082;2023-08-20T06:23:07;97437.09;;;21.09;98.01
6668;BME280;3370;47.712;9.082;2023-08-20T06:25:33;97429.44;;;21.17;98.46
6668;BME280;3370;47.712;9.082;2023-08-20T06:27:59;97437.44;;;21.16;98.43
6668;BME280;3370;47.712;9.082;2023-08-20T06:30:24;97432.03;;;21.17;98.43
6668;BME280;3370;47.712;9.082;2023-08-20T06:32:50;97434.41;;;21.20;99.82
6668;BME280;3370;47.712;9.082;2023-08-20T06:35:16;97437.25;;;21.29;99.12
6668;BME280;3370;47.712;9.082;2023-08-20T06:37:42;97437.81;;;21.32;97.95
6668;BME280;3370;47.712;9.082;2023-08-20T06:40:08;97440.56;;;21.31;97.17
6668;BME280;3370;47.712;9.082;2023-08-20T06:42:34;97439.78;;;21.40;95.70
6668;BME280;3370;47.712;9.082;2023-08-20T06:45:00;97445.22;;;21.48;96.29
6668;BME280;3370;47.712;9.082;2023-08-20T06:47:26;97446.66;;;21.52;99.08
6668;BME280;3370;47.712;9.082;2023-08-20T06:49:52;97448.06;;;21.56;95.48
6668;BME280;3370;47.712;9.082;2023-08-20T06:52:17;97458.06;;;21.51;94.84
6668;BME280;3370;47.712;9.082;2023-08-20T06:54:44;97454.44;;;21.63;97.23
6668;BME280;3370;47.712;9.082;2023-08-20T06:57:10;97453.34;;;21.66;95.82
6668;BME280;3370;47.712;9.082;2023-08-20T06:59:36;97456.41;;;21.71;95.03
6668;BME280;3370;47.712;9.082;2023-08-20T07:02:02;97455.50;;;21.82;94.49
6668;BME280;3370;47.712;9.082;2023-08-20T07:04:29;97451.94;;;21.83;96.54
6668;BME280;3370;47.712;9.082;2023-08-20T07:06:55;97454.03;;;21.89;97.11
6668;BME280;3370;47.712;9.082;2023-08-20T07:09:20;97460.16;;;21.99;98.27
6668;BME280;3370;47.712;9.082;2023-08-20T07:11:46;97463.22;;;21.83;97.12
6668;BME280;3370;47.712;9.082;2023-08-20T07:14:12;97470.38;;;21.81;97.94
6668;BME280;3370;47.712;9.082;2023-08-20T07:16:38;97470.16;;;21.94;98.32
6668;BME280;3370;47.712;9.082;2023-08-20T07:19:04;97467.56;;;21.94;98.54
6668;BME280;3370;47.712;9.082;2023-08-20T07:21:29;97469.38;;;22.04;98.38
6668;BME280;3370;47.712;9.082;2023-08-20T07:23:55;97474.63;;;22.04;95.28
6668;BME280;3370;47.712;9.082;2023-08-20T07:26:21;97468.59;;;22.13;94.75
6668;BME280;3370;47.712;9.082;2023-08-20T07:28:47;97471.91;;;22.15;91.93
6668;BME280;3370;47.712;9.082;2023-08-20T07:31:29;97468.97;;;22.29;92.04
6668;BME280;3370;47.712;9.082;2023-08-20T07:33:57;97474.50;;;22.36;91.23
6668;BME280;3370;47.712;9.082;2023-08-20T07:36:24;97476.31;;;22.35;88.70
6668;BME280;3370;47.712;9.082;2023-08-20T07:38:52;97475.78;;;22.51;89.74
6668;BME280;3370;47.712;9.082;2023-08-20T07:41:18;97481.22;;;22.59;88.56
6668;BME280;3370;47.712;9.082;2023-08-20T07:43:46;97483.03;;;22.69;88.26
6668;BME280;3370;47.712;9.082;2023-08-20T07:46:12;97482.63;;;22.73;87.56
6668;BME280;3370;47.712;9.082;2023-08-20T07:48:39;97480.69;;;22.75;86.11
6668;BME280;3370;47.712;9.082;2023-08-20T07:51:06;97476.16;;;22.87;85.30
6668;BME280;3370;47.712;9.082;2023-08-20T07:53:33;97475.34;;;22.96;83.57
6668;BME280;3370;47.712;9.082;2023-08-20T07:56:00;97481.81;;;23.02;82.35
6668;BME280;3370;47.712;9.082;2023-08-20T07:58:27;97482.81;;;23.01;81.22
6668;BME280;3370;47.712;9.082;2023-08-20T08:00:54;97489.06;;;23.20;82.35
6668;BME280;3370;47.712;9.082;2023-08-20T08:03:20;97488.78;;;23.32;82.83
6668;BME280;3370;47.712;9.082;2023-08-20T08:05:50;97492.09;;;23.44;81.67
6668;BME280;3370;47.712;9.082;2023-08-20T08:08:16;97490.97;;;23.57;81.15
6668;BME280;3370;47.712;9.082;2023-08-20T08:10:43;97486.53;;;23.67;81.48
6668;BME280;3370;47.712;9.082;2023-08-20T08:13:14;97489.84;;;23.69;82.77
6668;BME280;3370;47.712;9.082;2023-08-20T08:15:40;97482.25;;;23.56;80.44
6668;BME280;3370;47.712;9.082;2023-08-20T08:18:07;97484.34;;;23.62;83.65
6668;BME280;3370;47.712;9.082;2023-08-20T08:20:33;97488.59;;;23.63;82.31
6668;BME280;3370;47.712;9.082;2023-08-20T08:22:59;97484.19;;;23.64;81.99
6668;BME280;3370;47.712;9.082;2023-08-20T08:25:26;97492.59;;;23.67;80.80
6668;BME280;3370;47.712;9.082;2023-08-20T08:27:51;97489.84;;;23.88;75.39
6668;BME280;3370;47.712;9.082;2023-08-20T08:30:17;97482.66;;;23.90;76.40
6668;BME280;3370;47.712;9.082;2023-08-20T08:32:43;97493.56;;;23.96;77.67
6668;BME280;3370;47.712;9.082;2023-08-20T08:35:09;97485.69;;;23.96;76.00
6668;BME280;3370;47.712;9.082;2023-08-20T08:37:35;97490.56;;;24.18;73.56
6668;BME280;3370;47.712;9.082;2023-08-20T08:40:02;97498.16;;;24.21;75.77
6668;BME280;3370;47.712;9.082;2023-08-20T08:42:33;97499.09;;;24.30;73.50
6668;BME280;3370;47.712;9.082;2023-08-20T08:45:00;97491.28;;;24.48;73.27
6668;BME280;3370;47.712;9.082;2023-08-20T08:47:26;97494.72;;;24.58;70.63
6668;BME280;3370;47.712;9.082;2023-08-20T08:49:55;97486.81;;;24.58;71.16
6668;BME280;3370;47.712;9.082;2023-08-20T08:52:23;97494.81;;;24.66;72.40
6668;BME280;3370;47.712;9.082;2023-08-20T08:54:50;97496.31;;;24.69;71.61
6668;BME280;3370;47.712;9.082;2023-08-20T08:57:21;97491.59;;;24.73;72.74
6668;BME280;3370;47.712;9.082;2023-08-20T08:59:47;97494.47;;;24.79;71.99
6668;BME280;3370;47.712;9.082;2023-08-20T09:02:13;97496.03;;;24.72;71.22
6668;BME280;3370;47.712;9.082;2023-08-20T09:04:40;97496.06;;;24.90;74.09
6668;BME280;3370;47.712;9.082;2023-08-20T09:07:12;97500.88;;;24.95;73.88
6668;BME280;3370;47.712;9.082;2023-08-20T09:09:42;97489.53;;;25.12;74.62
6668;BME280;3370;47.712;9.082;2023-08-20T09:12:19;97488.41;;;25.15;73.63
6668;BME280;3370;47.712;9.082;2023-08-20T09:14:50;97489.53;;;25.12;73.78
6668;BME280;3370;47.712;9.082;2023-08-20T09:17:16;97494.50;;;25.15;71.05
6668;BME280;3370;47.712;9.082;2023-08-20T09:19:45;97489.66;;;25.38;69.19
6668;BME280;3370;47.712;9.082;2023-08-20T09:22:15;97490.91;;;25.34;71.70
6668;BME280;3370;47.712;9.082;2023-08-20T09:24:56;97495.97;;;25.46;69.48
6668;BME280;3370;47.712;9.082;2023-08-20T09:27:23;97491.19;;;25.67;68.00
6668;BME280;3370;47.712;9.082;2023-08-20T09:29:55;97479.97;;;25.65;65.22
6668;BME280;3370;47.712;9.082;2023-08-20T09:32:23;97481.22;;;25.79;65.10
6668;BME280;3370;47.712;9.082;2023-08-20T09:34:51;97492.50;;;25.89;68.96
6668;BME280;3370;47.712;9.082;2023-08-20T09:37:20;97488.47;;;26.03;66.61
6668;BME280;3370;47.712;9.082;2023-08-20T09:39:46;97489.78;;;25.99;67.92
6668;BME280;3370;47.712;9.082;2023-08-20T09:42:13;97492.91;;;26.02;66.74
6668;BME280;3370;47.712;9.082;2023-08-20T09:44:44;97492.28;;;26.09;67.74
6668;BME280;3370;47.712;9.082;2023-08-20T09:47:15;97488.56;;;26.19;68.61
6668;BME280;3370;47.712;9.082;2023-08-20T09:49:46;97494.75;;;26.10;67.56
6668;BME280;3370;47.712;9.082;2023-08-20T09:52:40;97492.03;;;26.20;67.82
6668;BME280;3370;47.712;9.082;2023-08-20T09:55:17;97487.44;;;26.30;68.42
6668;BME280;3370;47.712;9.082;2023-08-20T09:57:47;97487.72;;;26.45;65.94
6668;BME280;3370;47.712;9.082;2023-08-20T10:00:14;97487.72;;;26.45;66.31
6668;BME280;3370;47.712;9.082;2023-08-20T10:02:42;97488.06;;;26.58;64.83
6668;BME280;3370;47.712;9.082;2023-08-20T10:05:10;97493.91;;;26.36;63.99
6668;BME280;3370;47.712;9.082;2023-08-20T10:07:37;97483.13;;;26.55;65.84
6668;BME280;3370;47.712;9.082;2023-08-20T10:10:05;97489.94;;;26.66;64.92
6668;BME280;3370;47.712;9.082;2023-08-20T10:12:31;97487.50;;;26.81;64.00
6668;BME280;3370;47.712;9.082;2023-08-20T10:15:01;97482.38;;;26.71;62.69
6668;BME280;3370;47.712;9.082;2023-08-20T10:17:33;97483.88;;;26.82;62.81
6668;BME280;3370;47.712;9.082;2023-08-20T10:20:01;97490.19;;;27.06;62.76
6668;BME280;3370;47.712;9.082;2023-08-20T10:22:42;97490.94;;;26.73;63.58
6668;BME280;3370;47.712;9.082;2023-08-20T10:25:10;97478.84;;;27.05;62.76
6668;BME280;3370;47.712;9.082;2023-08-20T10:27:40;97484.63;;;27.09;63.50
6668;BME280;3370;47.712;9.082;2023-08-20T10:30:24;97490.19;;;26.97;64.29
6668;BME280;3370;47.712;9.082;2023-08-20T10:32:57;97473.72;;;27.12;64.71
6668;BME280;3370;47.712;9.082;2023-08-20T10:38:06;97487.63;;;27.47;64.27
6668;BME280;3370;47.712;9.082;2023-08-20T10:40:58;97482.00;;;27.66;64.37
6668;BME280;3370;47.712;9.082;2023-08-20T10:43:28;97470.44;;;27.67;61.78
6668;BME280;3370;47.712;9.082;2023-08-20T10:48:43;97467.63;;;27.94;60.95
6668;BME280;3370;47.712;9.082;2023-08-20T10:51:14;97470.75;;;28.05;61.48
6668;BME280;3370;47.712;9.082;2023-08-20T10:54:04;97475.97;;;28.14;62.70
6668;BME280;3370;47.712;9.082;2023-08-20T10:56:56;97476.78;;;28.30;63.30
6668;BME280;3370;47.712;9.082;2023-08-20T10:59:29;97468.78;;;28.47;60.03
6668;BME280;3370;47.712;9.082;2023-08-20T11:01:57;97477.22;;;28.82;58.67
6668;BME280;3370;47.712;9.082;2023-08-20T11:04:27;97472.63;;;28.76;57.11
6668;BME280;3370;47.712;9.082;2023-08-20T11:06:56;97469.06;;;28.92;57.26
6668;BME280;3370;47.712;9.082;2023-08-20T11:09:27;97464.38;;;29.25;54.40
6668;BME280;3370;47.712;9.082;2023-08-20T11:11:54;97471.25;;;29.34;52.27
6668;BME280;3370;47.712;9.082;2023-08-20T11:14:21;97463.78;;;29.38;52.00
6668;BME280;3370;47.712;9.082;2023-08-20T11:16:48;97456.22;;;29.88;51.91
6668;BME280;3370;47.712;9.082;2023-08-20T11:19:19;97466.56;;;29.97;49.67
6668;BME280;3370;47.712;9.082;2023-08-20T11:21:45;97467.13;;;30.08;51.09
6668;BME280;3370;47.712;9.082;2023-08-20T11:24:12;97459.59;;;30.56;49.83
6668;BME280;3370;47.712;9.082;2023-08-20T11:26:42;97455.66;;;31.03;46.47
6668;BME280;3370;47.712;9.082;2023-08-20T11:29:10;97451.38;;;31.24;45.44
6668;BME280;3370;47.712;9.082;2023-08-20T11:31:37;97459.34;;;31.02;43.74
6668;BME280;3370;47.712;9.082;2023-08-20T11:34:04;97453.25;;;31.30;44.34
6668;BME280;3370;47.712;9.082;2023-08-20T11:36:31;97447.50;;;31.48;44.36
6668;BME280;3370;47.712;9.082;2023-08-20T11:38:57;97448.03;;;31.65;43.69
6668;BME280;3370;47.712;9.082;2023-08-20T11:41:25;97440.34;;;31.77;43.54
6668;BME280;3370;47.712;9.082;2023-08-20T11:43:52;97439.00;;;32.22;43.52
6668;BME280;3370;47.712;9.082;2023-08-20T11:46:21;97441.25;;;32.67;42.44
6668;BME280;3370;47.712;9.082;2023-08-20T11:49:08;97434.81;;;33.76;41.27
6668;BME280;3370;47.712;9.082;2023-08-20T11:51:47;97439.31;;;33.16;40.39
6668;BME280;3370;47.712;9.082;2023-08-20T11:54:16;97437.84;;;33.93;41.44
6668;BME280;3370;47.712;9.082;2023-08-20T11:56:51;97435.97;;;34.21;39.03
6668;BME280;3370;47.712;9.082;2023-08-20T11:59:20;97433.47;;;34.26;40.75
6668;BME280;3370;47.712;9.082;2023-08-20T12:01:56;97429.72;;;34.40;41.41
6668;BME280;3370;47.712;9.082;2023-08-20T12:04:25;97430.91;;;34.51;39.54
6668;BME280;3370;47.712;9.082;2023-08-20T12:07:14;97426.47;;;34.38;40.24
6668;BME280;3370;47.712;9.082;2023-08-20T12:09:40;97418.09;;;35.05;39.52
6668;BME280;3370;47.712;9.082;2023-08-20T12:12:08;97415.69;;;35.28;38.07
6668;BME280;3370;47.712;9.082;2023-08-20T12:14:35;97413.03;;;35.28;38.48
6668;BME280;3370;47.712;9.082;2023-08-20T12:17:01;97410.06;;;35.37;37.62
6668;BME280;3370;47.712;9.082;2023-08-20T12:19:28;97411.47;;;34.37;37.96
6668;BME280;3370;47.712;9.082;2023-08-20T12:21:54;97415.84;;;34.11;38.95
6668;BME280;3370;47.712;9.082;2023-08-20T12:24:20;97409.81;;;33.44;39.34
6668;BME280;3370;47.712;9.082;2023-08-20T12:26:46;97408.56;;;33.53;40.12
6668;BME280;3370;47.712;9.082;2023-08-20T12:29:13;97396.69;;;33.76;37.25
6668;BME280;3370;47.712;9.082;2023-08-20T12:31:41;97407.81;;;34.25;38.10
6668;BME280;3370;47.712;9.082;2023-08-20T12:34:07;97397.84;;;34.90;38.03
6668;BME280;3370;47.712;9.082;2023-08-20T12:36:34;97409.88;;;34.74;35.25
6668;BME280;3370;47.712;9.082;2023-08-20T12:38:59;97398.09;;;34.44;36.29
6668;BME280;3370;47.712;9.082;2023-08-20T12:41:25;97392.75;;;35.14;36.35
6668;BME280;3370;47.712;9.082;2023-08-20T12:43:51;97396.47;;;34.81;35.68
6668;BME280;3370;47.712;9.082;2023-08-20T12:46:17;97400.34;;;34.85;34.69
6668;BME280;3370;47.712;9.082;2023-08-20T12:48:43;97395.72;;;34.67;36.47
6668;BME280;3370;47.712;9.082;2023-08-20T12:51:09;97401.97;;;34.86;34.88
6668;BME280;3370;47.712;9.082;2023-08-20T12:53:39;97392.22;;;35.30;34.95
6668;BME280;3370;47.712;9.082;2023-08-20T12:56:05;97389.78;;;35.29;36.22
6668;BME280;3370;47.712;9.082;2023-08-20T12:58:31;97387.16;;;35.22;35.92
6668;BME280;3370;47.712;9.082;2023-08-20T13:00:56;97377.50;;;35.65;36.35
6668;BME280;3370;47.712;9.082;2023-08-20T13:03:22;97373.72;;;36.58;36.70
6668;BME280;3370;47.712;9.082;2023-08-20T13:05:49;97378.56;;;37.10;36.94
6668;BME280;3370;47.712;9.082;2023-08-20T13:08:15;97368.69;;;37.22;36.18
6668;BME280;3370;47.712;9.082;2023-08-20T13:10:42;97370.78;;;37.56;35.83
6668;BME280;3370;47.712;9.082;2023-08-20T13:13:13;97367.63;;;37.47;35.86
6668;BME280;3370;47.712;9.082;2023-08-20T13:15:39;97363.22;;;37.41;35.00
6668;BME280;3370;47.712;9.082;2023-08-20T13:18:06;97366.09;;;37.04;34.77
6668;BME280;3370;47.712;9.082;2023-08-20T13:20:33;97366.91;;;36.14;34.36
6668;BME280;3370;47.712;9.082;2023-08-20T13:22:59;97363.41;;;36.32;34.79
6668;BME280;3370;47.712;9.082;2023-08-20T13:25:24;97362.06;;;36.53;33.78
6668;BME280;3370;47.712;9.082;2023-08-20T13:27:50;97367.53;;;36.76;32.75
6668;BME280;3370;47.712;9.082;2023-08-20T13:30:16;97362.75;;;37.20;32.35
6668;BME280;3370;47.712;9.082;2023-08-20T13:32:43;97354.69;;;37.32;32.01